createdAt,value
2023-03-01T00:00:51.206Z,17.25
2023-03-01T00:03:17.761Z,12.00
2023-03-01T00:05:47.920Z,13.65
2023-03-01T00:08:14.508Z,15.55
2023-03-01T00:10:41.086Z,14.23
2023-03-01T00:13:07.594Z,14.40
2023-03-01T00:15:35.821Z,11.03
2023-03-01T00:18:02.370Z,10.13
2023-03-01T00:20:28.878Z,11.38
2023-03-01T00:22:55.447Z,10.32
2023-03-01T00:25:21.974Z,9.65
2023-03-01T00:27:49.974Z,10.87
2023-03-01T00:30:16.783Z,10.27
2023-03-01T00:32:43.405Z,11.55
2023-03-01T00:35:11.432Z,12.45
2023-03-01T00:37:37.921Z,12.10
2023-03-01T00:40:07.174Z,12.73
2023-03-01T00:42:33.744Z,12.25
2023-03-01T00:45:00.303Z,12.27
2023-03-01T00:47:27.190Z,15.57
2023-03-01T00:49:53.684Z,12.77
2023-03-01T00:52:20.202Z,12.03
2023-03-01T00:54:46.876Z,10.88
2023-03-01T00:57:13.426Z,9.52
2023-03-01T00:59:39.905Z,10.20
2023-03-01T01:02:06.474Z,10.38
2023-03-01T01:04:33.003Z,10.90
2023-03-01T01:07:01.670Z,12.23
2023-03-01T01:09:28.237Z,12.80
2023-03-01T01:11:54.727Z,12.52
2023-03-01T01:14:21.247Z,10.82
2023-03-01T01:16:47.963Z,17.23
2023-03-01T01:19:14.714Z,11.75
2023-03-01T01:21:44.086Z,13.32
2023-03-01T01:24:10.701Z,15.55
2023-03-01T01:26:37.286Z,11.43
2023-03-01T01:29:05.630Z,11.40
2023-03-01T01:31:33.123Z,13.23
2023-03-01T01:34:01.229Z,12.32
2023-03-01T01:36:28.204Z,15.32
2023-03-01T01:38:55.145Z,12.55
2023-03-01T01:41:22.244Z,12.37
2023-03-01T01:43:51.336Z,12.98
2023-03-01T01:46:27.293Z,12.15
2023-03-01T01:48:59.929Z,14.88
2023-03-01T01:51:39.037Z,12.13
2023-03-01T01:54:11.454Z,13.23
2023-03-01T01:56:39.482Z,13.10
2023-03-01T01:59:06.226Z,13.55
2023-03-01T02:01:32.885Z,15.00
2023-03-01T02:04:00.586Z,13.18
2023-03-01T02:06:43.555Z,15.27
2023-03-01T02:09:14.363Z,15.43
2023-03-01T02:11:41.267Z,13.30
2023-03-01T02:14:07.901Z,13.93
2023-03-01T02:16:35.023Z,14.52
2023-03-01T02:19:02.136Z,12.97
2023-03-01T02:21:37.829Z,17.52
2023-03-01T02:24:37.083Z,14.48
2023-03-01T02:27:03.780Z,12.50
2023-03-01T02:29:30.364Z,15.48
2023-03-01T02:31:59.403Z,19.03
2023-03-01T02:34:30.054Z,19.92
2023-03-01T02:37:05.529Z,16.60
2023-03-01T02:39:35.569Z,17.90
2023-03-01T02:42:04.116Z,20.88
2023-03-01T02:44:30.984Z,16.50
2023-03-01T02:46:58.316Z,16.90
2023-03-01T02:49:30.098Z,21.65
2023-03-01T02:52:16.360Z,17.60
2023-03-01T02:54:48.495Z,19.25
2023-03-01T02:57:15.106Z,17.60
2023-03-01T02:59:43.520Z,21.02
2023-03-01T03:02:37.190Z,27.65
2023-03-01T03:05:12.887Z,24.30
2023-03-01T03:07:45.066Z,18.60
2023-03-01T03:10:26.397Z,21.97
2023-03-01T03:12:58.009Z,23.27
2023-03-01T03:15:25.176Z,20.38
2023-03-01T03:17:53.147Z,26.58
2023-03-01T03:20:24.246Z,29.05
2023-03-01T03:22:53.295Z,27.83
2023-03-01T03:25:20.184Z,24.23
2023-03-01T03:27:50.714Z,29.63
2023-03-01T03:30:19.777Z,26.27
2023-03-01T03:32:53.194Z,25.23
2023-03-01T03:35:25.389Z,22.93
2023-03-01T03:38:04.935Z,25.52
2023-03-01T03:40:35.456Z,30.80
2023-03-01T03:43:03.504Z,32.58
2023-03-01T03:45:30.760Z,25.02
2023-03-01T03:47:57.324Z,27.47
2023-03-01T03:50:23.825Z,26.75
2023-03-01T03:52:50.389Z,26.05
2023-03-01T03:55:20.167Z,27.92
2023-03-01T03:57:52.415Z,30.27
2023-03-01T04:00:21.432Z,30.67
2023-03-01T04:02:48.769Z,22.73
2023-03-01T04:05:17.521Z,29.65
2023-03-01T04:07:44.878Z,23.60
2023-03-01T04:10:18.992Z,28.15
2023-03-01T04:12:45.471Z,31.73
2023-03-01T04:15:15.505Z,26.02
2023-03-01T04:17:46.773Z,33.75
2023-03-01T04:20:18.758Z,28.83
2023-03-01T04:22:48.488Z,29.73
2023-03-01T04:25:15.605Z,27.37
2023-03-01T04:27:42.243Z,29.27
2023-03-01T04:30:10.233Z,31.75
2023-03-01T04:32:36.806Z,32.67
2023-03-01T04:35:03.417Z,29.00
2023-03-01T04:37:30.803Z,24.07
2023-03-01T04:39:57.441Z,25.33
2023-03-01T04:42:24.010Z,28.63
2023-03-01T04:44:52.258Z,31.48
2023-03-01T04:47:18.845Z,32.17
2023-03-01T04:49:45.512Z,35.70
2023-03-01T04:52:12.157Z,37.15
2023-03-01T04:54:38.808Z,33.38
2023-03-01T04:57:05.346Z,30.80
2023-03-01T04:59:31.882Z,33.00
2023-03-01T05:01:58.555Z,24.93
2023-03-01T05:04:26.419Z,27.65
2023-03-01T05:06:54.652Z,28.20
2023-03-01T05:09:21.251Z,28.55
2023-03-01T05:11:47.815Z,28.02
2023-03-01T05:14:14.413Z,24.47
2023-03-01T05:16:40.974Z,25.27
2023-03-01T05:19:12.428Z,30.50
2023-03-01T05:21:59.856Z,29.23
2023-03-01T05:24:26.628Z,30.17
2023-03-01T05:26:53.580Z,30.13
2023-03-01T05:29:25.863Z,30.63
2023-03-01T05:31:54.532Z,28.60
2023-03-01T05:34:28.577Z,30.17
2023-03-01T05:36:55.711Z,31.05
2023-03-01T05:39:23.589Z,29.00
2023-03-01T05:41:54.052Z,30.73
2023-03-01T05:44:21.240Z,29.13
2023-03-01T05:46:47.924Z,30.67
2023-03-01T05:49:14.917Z,32.60
2023-03-01T05:51:42.546Z,31.40
2023-03-01T05:54:11.966Z,33.30
2023-03-01T05:56:41.176Z,35.33
2023-03-01T05:59:07.678Z,33.53
2023-03-01T06:01:35.030Z,26.67
2023-03-01T06:04:01.788Z,33.17
2023-03-01T06:06:29.264Z,36.35
2023-03-01T06:08:56.020Z,32.63
2023-03-01T06:11:22.669Z,28.95
2023-03-01T06:13:54.030Z,30.42
2023-03-01T06:16:20.571Z,30.10
2023-03-01T06:18:47.663Z,27.40
2023-03-01T06:21:15.358Z,32.03
2023-03-01T06:23:44.277Z,27.08
2023-03-01T06:26:11.022Z,29.83
2023-03-01T06:28:39.030Z,28.63
2023-03-01T06:31:09.653Z,26.15
2023-03-01T06:33:37.102Z,28.08
2023-03-01T06:36:05.218Z,29.30
2023-03-01T06:38:34.060Z,28.33
2023-03-01T06:41:00.619Z,28.50
2023-03-01T06:43:27.191Z,25.02
2023-03-01T06:45:56.122Z,23.65
2023-03-01T06:48:25.975Z,21.92
2023-03-01T06:50:53.466Z,23.00
2023-03-01T06:53:20.156Z,25.27
2023-03-01T06:55:47.848Z,26.10
2023-03-01T06:58:14.591Z,26.73
2023-03-01T07:00:41.823Z,19.15
2023-03-01T07:03:09.710Z,24.63
2023-03-01T07:05:36.445Z,23.80
2023-03-01T07:08:03.165Z,21.05
2023-03-01T07:10:29.818Z,24.48
2023-03-01T07:12:57.769Z,23.85
2023-03-01T07:15:24.816Z,21.15
2023-03-01T07:17:51.851Z,21.60
2023-03-01T07:20:25.515Z,20.85
2023-03-01T07:22:53.746Z,24.35
2023-03-01T07:25:20.387Z,25.38
2023-03-01T07:27:53.621Z,25.05
2023-03-01T07:30:21.496Z,24.53
2023-03-01T07:32:48.441Z,19.80
2023-03-01T07:35:15.897Z,20.35
2023-03-01T07:37:42.724Z,21.30
2023-03-01T07:40:11.132Z,23.67
2023-03-01T07:42:37.749Z,23.50
2023-03-01T07:45:06.193Z,19.92
2023-03-01T07:47:33.452Z,22.92
2023-03-01T07:50:00.076Z,21.27
2023-03-01T07:52:26.875Z,22.35
2023-03-01T07:54:53.371Z,24.87
2023-03-01T07:57:20.974Z,23.17
2023-03-01T07:59:47.530Z,21.00
2023-03-01T08:02:16.003Z,17.55
2023-03-01T08:04:43.407Z,17.40
2023-03-01T08:07:09.997Z,19.77
2023-03-01T08:09:37.878Z,17.23
2023-03-01T08:12:05.742Z,16.63
2023-03-01T08:14:33.603Z,20.20
2023-03-01T08:17:00.220Z,19.70
2023-03-01T08:19:28.994Z,18.57
2023-03-01T08:21:55.917Z,18.58
2023-03-01T08:24:23.225Z,18.33
2023-03-01T08:26:49.759Z,16.20
2023-03-01T08:29:16.327Z,15.93
2023-03-01T08:31:43.123Z,17.00
2023-03-01T08:34:13.416Z,16.63
2023-03-01T08:36:42.617Z,19.00
2023-03-01T08:39:11.468Z,19.60
2023-03-01T08:41:38.232Z,16.13
2023-03-01T08:44:05.335Z,18.87
2023-03-01T08:46:35.043Z,19.58
2023-03-01T08:49:01.729Z,20.00
2023-03-01T08:51:29.658Z,18.30
2023-03-01T08:53:56.195Z,16.27
2023-03-01T08:56:22.744Z,23.93
2023-03-01T08:58:50.681Z,19.20
2023-03-01T09:01:19.439Z,16.70
2023-03-01T09:03:46.878Z,19.10
2023-03-01T09:06:14.920Z,15.68
2023-03-01T09:08:44.088Z,16.40
2023-03-01T09:11:12.907Z,14.23
2023-03-01T09:13:40.261Z,17.05
2023-03-01T09:16:08.692Z,19.00
2023-03-01T09:18:36.812Z,15.70
2023-03-01T09:21:10.388Z,14.93
2023-03-01T09:23:40.119Z,16.92
2023-03-01T09:26:10.111Z,15.23
2023-03-01T09:28:37.936Z,16.52
2023-03-01T09:31:06.176Z,16.60
2023-03-01T09:33:33.686Z,15.53
2023-03-01T09:36:02.815Z,13.48
2023-03-01T09:38:29.711Z,16.88
2023-03-01T09:40:56.575Z,14.02
2023-03-01T09:43:39.669Z,15.80
2023-03-01T09:46:09.360Z,15.23
2023-03-01T09:49:03.212Z,15.93
2023-03-01T09:51:37.248Z,17.65
2023-03-01T09:54:04.895Z,13.20
2023-03-01T09:57:16.184Z,14.57
2023-03-01T09:59:48.422Z,17.07
2023-03-01T10:02:27.060Z,13.73
2023-03-01T10:05:16.874Z,13.80
2023-03-01T10:08:09.767Z,16.13
2023-03-01T10:10:39.173Z,16.10
2023-03-01T10:13:18.164Z,19.30
2023-03-01T10:15:50.103Z,17.25
2023-03-01T10:18:20.397Z,15.52
2023-03-01T10:20:54.091Z,13.57
2023-03-01T10:23:23.655Z,15.57
2023-03-01T10:26:07.239Z,15.60
2023-03-01T10:29:03.744Z,15.32
2023-03-01T10:31:47.588Z,12.93
2023-03-01T10:34:19.946Z,15.23
2023-03-01T10:36:50.230Z,14.32
2023-03-01T10:39:22.808Z,14.80
2023-03-01T10:41:56.781Z,12.27
2023-03-01T10:44:46.345Z,13.68
2023-03-01T10:47:28.682Z,15.75
2023-03-01T10:50:05.002Z,14.40
2023-03-01T10:52:34.530Z,15.07
2023-03-01T10:55:04.539Z,15.48
2023-03-01T10:57:39.424Z,16.33
2023-03-01T11:00:26.191Z,16.10
2023-03-01T11:03:14.393Z,16.52
2023-03-01T11:06:15.380Z,17.57
2023-03-01T11:08:46.863Z,15.50
2023-03-01T11:11:13.851Z,18.25
2023-03-01T11:13:56.984Z,17.33
2023-03-01T11:16:28.763Z,15.27
2023-03-01T11:19:05.455Z,16.13
2023-03-01T11:21:33.720Z,13.23
2023-03-01T11:24:02.394Z,13.75
2023-03-01T11:26:30.418Z,16.67
2023-03-01T11:28:59.901Z,15.43
2023-03-01T11:31:27.628Z,17.67
2023-03-01T11:34:03.406Z,16.17
2023-03-01T11:36:33.730Z,16.00
2023-03-01T11:39:14.179Z,17.02
2023-03-01T11:41:43.386Z,17.20
2023-03-01T11:44:20.981Z,16.97
2023-03-01T11:46:52.788Z,19.83
2023-03-01T11:49:37.846Z,16.85
2023-03-01T11:52:16.596Z,18.52
2023-03-01T11:54:46.144Z,19.13
2023-03-01T11:57:43.469Z,18.87
2023-03-01T12:00:29.416Z,16.45
2023-03-01T12:03:15.231Z,17.50
2023-03-01T12:06:06.531Z,19.33
2023-03-01T12:08:43.950Z,16.90
2023-03-01T12:11:29.023Z,18.23
2023-03-01T12:14:15.154Z,19.95
2023-03-01T12:16:46.312Z,20.95
2023-03-01T12:19:40.313Z,16.70
2023-03-01T12:22:28.759Z,15.95
2023-03-01T12:25:23.113Z,19.20
2023-03-01T12:28:17.595Z,19.33
2023-03-01T12:31:09.406Z,22.63
2023-03-01T12:33:57.169Z,18.55
2023-03-01T12:36:45.264Z,21.05
2023-03-01T12:39:37.777Z,18.07
2023-03-01T12:42:20.622Z,20.35
2023-03-01T12:45:03.019Z,17.77
2023-03-01T12:47:47.884Z,19.85
2023-03-01T12:50:25.742Z,19.50
2023-03-01T12:53:01.478Z,20.00
2023-03-01T12:55:32.657Z,21.63
2023-03-01T12:58:04.397Z,19.23
2023-03-01T13:00:38.957Z,21.70
2023-03-01T13:03:46.263Z,20.17
2023-03-01T13:06:29.758Z,21.23
2023-03-01T13:09:24.180Z,19.20
2023-03-01T13:11:50.742Z,19.88
2023-03-01T13:14:26.366Z,22.08
2023-03-01T13:16:54.101Z,20.98
2023-03-01T13:19:30.224Z,17.30
2023-03-01T13:21:56.991Z,20.08
2023-03-01T13:24:37.761Z,19.63
2023-03-01T13:27:07.432Z,16.42
2023-03-01T13:29:42.698Z,19.67
2023-03-01T13:32:21.407Z,18.57
2023-03-01T13:35:15.204Z,18.63
2023-03-01T13:37:42.444Z,18.63
2023-03-01T13:40:29.420Z,18.98
2023-03-01T13:43:05.351Z,20.05
2023-03-01T13:45:44.237Z,17.03
2023-03-01T13:48:23.569Z,18.02
2023-03-01T13:50:54.512Z,17.13
2023-03-01T13:53:24.166Z,16.65
2023-03-01T13:55:55.510Z,19.95
2023-03-01T13:58:34.506Z,17.00
2023-03-01T14:01:03.543Z,18.88
2023-03-01T14:03:32.115Z,17.08
2023-03-01T14:06:14.159Z,18.45
2023-03-01T14:08:43.539Z,17.67
2023-03-01T14:11:47.758Z,16.57
2023-03-01T14:14:29.534Z,16.58
2023-03-01T14:17:19.552Z,16.65
2023-03-01T14:19:48.116Z,20.25
2023-03-01T14:22:23.807Z,17.20
2023-03-01T14:24:52.731Z,18.33
2023-03-01T14:27:19.755Z,18.27
2023-03-01T14:29:56.965Z,23.90
2023-03-01T14:32:27.451Z,18.50
2023-03-01T14:34:54.134Z,19.45
2023-03-01T14:37:28.094Z,18.03
2023-03-01T14:39:55.376Z,19.25
2023-03-01T14:42:24.213Z,18.90
2023-03-01T14:44:52.833Z,17.73
2023-03-01T14:47:31.172Z,16.63
2023-03-01T14:50:15.481Z,17.97
2023-03-01T14:52:45.375Z,18.13
2023-03-01T14:55:21.812Z,14.95
2023-03-01T14:57:50.407Z,17.77
2023-03-01T15:00:21.387Z,16.02
2023-03-01T15:02:53.673Z,17.97
2023-03-01T15:05:31.560Z,17.25
2023-03-01T15:08:02.549Z,17.83
2023-03-01T15:10:34.793Z,16.95
2023-03-01T15:13:20.938Z,20.83
2023-03-01T15:15:48.737Z,15.90
2023-03-01T15:18:24.825Z,20.67
2023-03-01T15:20:51.881Z,18.60
2023-03-01T15:23:29.862Z,15.50
2023-03-01T15:26:01.410Z,17.92
2023-03-01T15:28:34.652Z,17.13
2023-03-01T15:31:16.073Z,16.50
2023-03-01T15:33:48.089Z,16.50
2023-03-01T15:36:38.486Z,16.73
2023-03-01T15:39:16.936Z,20.50
2023-03-01T15:41:49.897Z,17.07
2023-03-01T15:44:35.019Z,18.23
2023-03-01T15:47:24.506Z,19.48
2023-03-01T15:49:55.424Z,21.00
2023-03-01T15:52:37.633Z,20.15
2023-03-01T15:55:07.178Z,19.60
2023-03-01T15:57:33.727Z,19.90
2023-03-01T16:00:00.243Z,18.42
2023-03-01T16:02:26.920Z,21.25
2023-03-01T16:04:54.858Z,23.50
2023-03-01T16:07:21.472Z,19.20
2023-03-01T16:09:51.408Z,19.58
2023-03-01T16:12:21.514Z,15.57
2023-03-01T16:14:49.578Z,17.35
2023-03-01T16:17:22.213Z,20.05
2023-03-01T16:19:48.725Z,16.00
2023-03-01T16:22:15.247Z,23.10
2023-03-01T16:24:43.338Z,24.42
2023-03-01T16:27:10.141Z,29.67
2023-03-01T16:29:38.279Z,28.55
2023-03-01T16:32:05.394Z,32.23
2023-03-01T16:34:32.315Z,30.58
2023-03-01T16:36:58.884Z,27.58
2023-03-01T16:39:25.559Z,26.38
2023-03-01T16:41:52.622Z,30.92
2023-03-01T16:44:19.280Z,29.73
2023-03-01T16:46:46.885Z,31.50
2023-03-01T16:49:13.438Z,29.10
2023-03-01T16:51:39.950Z,30.00
2023-03-01T16:54:06.629Z,27.17
2023-03-01T16:56:39.950Z,34.60
2023-03-01T16:59:07.410Z,32.35
2023-03-01T17:01:55.458Z,35.25
2023-03-01T17:04:22.196Z,29.05
2023-03-01T17:06:49.544Z,28.73
2023-03-01T17:09:26.372Z,31.63
2023-03-01T17:11:55.376Z,31.73
2023-03-01T17:14:39.277Z,32.28
2023-03-01T17:17:05.816Z,29.23
2023-03-01T17:19:32.906Z,27.73
2023-03-01T17:22:03.739Z,33.87
2023-03-01T17:24:39.953Z,31.30
2023-03-01T17:27:07.831Z,32.00
2023-03-01T17:29:43.216Z,37.47
2023-03-01T17:32:12.422Z,40.17
2023-03-01T17:34:41.753Z,38.80
2023-03-01T17:37:11.008Z,37.65
2023-03-01T17:39:38.089Z,33.50
2023-03-01T17:42:06.222Z,39.17
2023-03-01T17:44:36.747Z,38.45
2023-03-01T17:47:05.734Z,41.07
2023-03-01T17:49:35.500Z,36.45
2023-03-01T17:52:02.599Z,44.03
2023-03-01T17:54:29.449Z,38.55
2023-03-01T17:56:56.526Z,39.78
2023-03-01T17:59:23.141Z,41.80
2023-03-01T18:01:49.716Z,40.42
2023-03-01T18:04:18.397Z,41.00
2023-03-01T18:06:45.130Z,38.75
2023-03-01T18:09:12.090Z,41.65
2023-03-01T18:11:40.592Z,41.00
2023-03-01T18:14:07.374Z,38.70
2023-03-01T18:16:35.000Z,40.50
2023-03-01T18:19:01.995Z,43.28
2023-03-01T18:21:30.128Z,34.17
2023-03-01T18:23:57.499Z,36.00
2023-03-01T18:26:25.231Z,22.23
2023-03-01T18:28:52.647Z,14.60
2023-03-01T18:31:22.331Z,11.25
2023-03-01T18:33:52.394Z,11.38
2023-03-01T18:36:22.794Z,8.50
2023-03-01T18:38:49.772Z,8.73
2023-03-01T18:41:16.591Z,8.07
2023-03-01T18:43:43.221Z,11.98
2023-03-01T18:46:10.124Z,8.80
2023-03-01T18:48:37.092Z,10.30
2023-03-01T18:51:11.130Z,12.32
2023-03-01T18:53:37.742Z,11.00
2023-03-01T18:56:04.783Z,11.27
2023-03-01T18:58:31.392Z,10.77
2023-03-01T19:00:57.948Z,9.73
2023-03-01T19:03:24.426Z,10.10
2023-03-01T19:05:51.038Z,6.57
2023-03-01T19:08:19.626Z,8.43
2023-03-01T19:10:46.225Z,9.05
2023-03-01T19:13:12.945Z,9.93
2023-03-01T19:15:39.572Z,8.75
2023-03-01T19:18:06.182Z,9.43
2023-03-01T19:20:32.773Z,9.05
2023-03-01T19:22:59.358Z,8.25
2023-03-01T19:25:25.996Z,11.83
2023-03-01T19:27:52.540Z,14.02
2023-03-01T19:30:21.869Z,9.68
2023-03-01T19:32:49.431Z,8.65
2023-03-01T19:35:16.046Z,8.93
2023-03-01T19:37:43.668Z,9.57
2023-03-01T19:40:10.932Z,8.98
2023-03-01T19:42:39.003Z,7.97
2023-03-01T19:45:06.118Z,7.32
2023-03-01T19:47:32.642Z,9.27
2023-03-01T19:49:59.225Z,7.37
2023-03-01T19:52:25.799Z,7.55
2023-03-01T19:54:55.847Z,6.35
2023-03-01T19:57:32.904Z,8.95
2023-03-01T20:00:00.161Z,10.63
2023-03-01T20:02:28.405Z,8.80
2023-03-01T20:04:57.862Z,8.05
2023-03-01T20:07:24.449Z,9.80
2023-03-01T20:09:52.378Z,7.88
2023-03-01T20:12:19.391Z,8.68
2023-03-01T20:14:46.126Z,9.10
2023-03-01T20:17:12.724Z,7.05
2023-03-01T20:19:41.854Z,6.97
2023-03-01T20:22:08.450Z,6.75
2023-03-01T20:24:35.114Z,6.68
2023-03-01T20:27:02.051Z,9.77
2023-03-01T20:29:28.562Z,8.25
2023-03-01T20:31:55.249Z,10.20
2023-03-01T20:34:21.909Z,11.82
2023-03-01T20:36:49.241Z,9.35
2023-03-01T20:39:15.951Z,11.17
2023-03-01T20:41:42.662Z,14.00
2023-03-01T20:44:09.572Z,9.18
2023-03-01T20:46:37.296Z,12.18
2023-03-01T20:49:04.616Z,9.32
2023-03-01T20:51:31.197Z,10.47
2023-03-01T20:53:57.802Z,9.60
2023-03-01T20:56:24.707Z,14.15
2023-03-01T20:58:51.249Z,9.70
2023-03-01T21:01:21.016Z,13.32
2023-03-01T21:03:49.666Z,10.27
2023-03-01T21:06:16.298Z,12.35
2023-03-01T21:08:42.922Z,13.63
2023-03-01T21:11:09.485Z,12.60
2023-03-01T21:13:36.082Z,12.07
2023-03-01T21:16:07.596Z,13.73
2023-03-01T21:18:36.043Z,14.45
2023-03-01T21:21:08.524Z,12.20
2023-03-01T21:23:37.525Z,11.80
2023-03-01T21:26:12.171Z,16.98
2023-03-01T21:28:39.452Z,13.83
2023-03-01T21:31:09.956Z,13.27
2023-03-01T21:33:37.705Z,15.63
2023-03-01T21:36:07.131Z,15.52
2023-03-01T21:38:36.052Z,12.55
2023-03-01T21:41:07.478Z,14.53
2023-03-01T21:43:34.964Z,14.68
2023-03-01T21:46:03.753Z,13.32
2023-03-01T21:48:30.780Z,13.93
2023-03-01T21:51:00.732Z,14.73
2023-03-01T21:53:29.147Z,21.63
2023-03-01T21:55:57.662Z,17.38
2023-03-01T21:58:25.631Z,15.57
2023-03-01T22:00:52.513Z,20.20
2023-03-01T22:03:19.202Z,18.23
2023-03-01T22:05:56.236Z,20.90
2023-03-01T22:08:22.803Z,19.90
2023-03-01T22:10:49.757Z,22.08
2023-03-01T22:13:16.405Z,22.65
2023-03-01T22:15:45.912Z,16.92
2023-03-01T22:18:13.222Z,23.63
2023-03-01T22:20:40.837Z,19.70
2023-03-01T22:23:07.826Z,20.38
2023-03-01T22:25:41.357Z,24.33
2023-03-01T22:28:07.983Z,22.35
2023-03-01T22:30:34.547Z,22.40
2023-03-01T22:33:01.042Z,23.75
2023-03-01T22:35:27.613Z,19.33
2023-03-01T22:37:54.199Z,19.85
2023-03-01T22:40:20.787Z,20.50
2023-03-01T22:42:47.444Z,24.00
2023-03-01T22:45:14.167Z,22.63
2023-03-01T22:47:40.646Z,19.42
2023-03-01T22:50:08.776Z,16.30
2023-03-01T22:52:35.920Z,19.30
2023-03-01T22:55:02.526Z,17.33
2023-03-01T22:57:29.035Z,18.58
2023-03-01T22:59:55.663Z,16.80
2023-03-01T23:02:23.249Z,15.80
2023-03-01T23:04:49.965Z,16.55
2023-03-01T23:07:16.905Z,22.13
2023-03-01T23:09:43.408Z,22.88
2023-03-01T23:12:10.981Z,21.73
2023-03-01T23:14:38.185Z,23.20
2023-03-01T23:17:05.433Z,20.13
2023-03-01T23:19:33.019Z,18.17
2023-03-01T23:21:59.575Z,18.58
2023-03-01T23:24:31.841Z,21.17
2023-03-01T23:27:00.961Z,19.13
2023-03-01T23:29:27.594Z,23.88
2023-03-01T23:31:59.200Z,21.87
2023-03-01T23:34:26.306Z,17.00
2023-03-01T23:36:54.013Z,24.45
2023-03-01T23:39:21.259Z,17.02
2023-03-01T23:41:47.930Z,18.60
2023-03-01T23:44:16.791Z,21.67
2023-03-01T23:46:44.004Z,23.58
2023-03-01T23:49:16.456Z,20.05
2023-03-01T23:51:50.236Z,24.92
2023-03-01T23:54:19.086Z,26.00
2023-03-01T23:56:46.035Z,24.53
2023-03-01T23:59:16.032Z,21.88
